»·PEaware :: SWA5463 KLAS-KPHX

SWA5463 :: KLAS-KPHX

FLIGHT INFORMATION

Flight Status: Arrived
Operator:
Southwest Airlines
More flights by this operator :: More flights under this callsign
Pilot: Cody B. (17747)
Aircraft: BOEING 737-800
(B738)
More flights by this aircraft type
Origin: KLAS McCarran Intl
United States
Destination: KPHX Phoenix Sky Harbor Intl
United States
More flights between these airports :: More routes between these airports
Route: COWBY8 COWBY TENTS BRUSR1
File this flight plan on PilotEdge
Remarks:
Altitude:
(Current/Filed)
29,000ft
Speed:
(Current/Filed)
459kts
Departed: 28-Jul-18 02:11 PM
Arrived: 28-Jul-18 03:02 PM
Distance/Time
Traveled:
222nm/0:50
Distance/Time
To Go:
Arrived

Flight Plot

Page will automatically refresh every two minutes.

Flight plan parsing failed; only flown route is shown


Map Options




Map Legend


Flown Route
Filed Route
Departure Airport
Arrival Airport
Navaid (VOR, NDB)
Fix

Horizontal Profiles

Position Reports

Time Latitude Longitude Heading Altitude Ground
Speed
28-Jul-18 13:14 36.079934 -115.147125 61 2189ft 0kts
28-Jul-18 13:15 36.079934 -115.147125 61 2189ft 0kts
28-Jul-18 13:16 36.079934 -115.147125 61 2189ft 0kts
28-Jul-18 13:17 36.079934 -115.147125 61 2189ft 0kts
28-Jul-18 13:18 36.079934 -115.147125 61 2189ft 0kts
28-Jul-18 13:19 36.079934 -115.147125 61 2189ft 0kts
28-Jul-18 13:20 36.079934 -115.147125 61 2189ft 0kts
28-Jul-18 13:21 36.079934 -115.147125 61 2189ft 0kts
28-Jul-18 13:22 36.079934 -115.147125 61 2189ft 0kts
28-Jul-18 13:23 36.079934 -115.147125 61 2189ft 0kts
28-Jul-18 13:24 36.079934 -115.147125 61 2189ft 0kts
28-Jul-18 13:25 36.079934 -115.147125 61 2189ft 0kts
28-Jul-18 13:26 36.079934 -115.147125 61 2189ft 0kts
28-Jul-18 13:27 36.079934 -115.147125 61 2189ft 0kts
28-Jul-18 13:28 36.079934 -115.147125 61 2189ft 0kts
28-Jul-18 13:29 36.079934 -115.147125 61 2189ft 0kts
28-Jul-18 13:30 36.079934 -115.147125 61 2189ft 0kts
28-Jul-18 13:31 36.079934 -115.147125 61 2189ft 0kts
28-Jul-18 13:32 36.079934 -115.147125 61 2189ft 0kts
28-Jul-18 13:33 36.079934 -115.147125 61 2189ft 0kts
28-Jul-18 13:34 36.079934 -115.147125 61 2189ft 0kts
28-Jul-18 13:35 36.079934 -115.147125 61 2189ft 0kts
28-Jul-18 13:36 36.079934 -115.147125 61 2189ft 0kts
28-Jul-18 13:37 36.079934 -115.147125 61 2189ft 0kts
28-Jul-18 13:38 36.079934 -115.147125 61 2189ft 0kts
28-Jul-18 13:39 36.079934 -115.147125 61 2189ft 0kts
28-Jul-18 13:40 36.079934 -115.147125 61 2189ft 0kts
28-Jul-18 13:41 36.079934 -115.147125 61 2189ft 0kts
28-Jul-18 13:42 36.079934 -115.147125 61 2189ft 0kts
28-Jul-18 13:43 36.079934 -115.147125 61 2189ft 0kts
28-Jul-18 13:44 36.079934 -115.147125 61 2189ft 0kts
28-Jul-18 13:45 36.079934 -115.147125 61 2189ft 0kts
28-Jul-18 13:46 36.079934 -115.147125 61 2189ft 0kts
28-Jul-18 13:47 36.079934 -115.147125 61 2189ft 0kts
28-Jul-18 13:48 36.079934 -115.147125 61 2189ft 0kts
28-Jul-18 13:49 36.079934 -115.147125 61 2189ft 0kts
28-Jul-18 13:50 36.079934 -115.147125 61 2189ft 0kts
28-Jul-18 13:51 36.079934 -115.147125 61 2189ft 0kts
28-Jul-18 13:52 36.079934 -115.147125 61 2189ft 0kts
28-Jul-18 13:53 36.079934 -115.147125 61 2189ft 0kts
28-Jul-18 13:54 36.079934 -115.147125 61 2189ft 0kts
28-Jul-18 13:55 36.079888 -115.147232 61 2189ft 2kts
28-Jul-18 13:56 36.079962 -115.147887 148 2189ft 2kts
28-Jul-18 13:57 36.080057 -115.147940 156 2189ft 0kts
28-Jul-18 13:58 36.080057 -115.147940 156 2189ft 0kts
28-Jul-18 13:59 36.079949 -115.147881 155 2189ft 2kts
28-Jul-18 14:00 36.079223 -115.147468 155 2189ft 0kts
28-Jul-18 14:01 36.079187 -115.147447 155 2189ft 1kts
28-Jul-18 14:02 36.078719 -115.147254 175 2189ft 4kts
28-Jul-18 14:03 36.077898 -115.148946 274 2188ft 7kts
28-Jul-18 14:04 36.078031 -115.151811 269 2189ft 9kts
28-Jul-18 14:05 36.078020 -115.155510 270 2188ft 12kts
28-Jul-18 14:06 36.078019 -115.160180 270 2189ft 13kts
28-Jul-18 14:07 36.077472 -115.161267 179 2189ft 0kts
28-Jul-18 14:08 36.077472 -115.161267 179 2189ft 0kts
28-Jul-18 14:09 36.077472 -115.161267 179 2189ft 0kts
28-Jul-18 14:10 36.077466 -115.161267 179 2188ft 0kts
28-Jul-18 14:11 36.076467 -115.161195 135 2189ft 3kts
28-Jul-18 14:12 36.076408 -115.150744 90 2189ft 110kts
28-Jul-18 14:13 36.075717 -115.092395 99 3400ft 196kts
28-Jul-18 14:14 36.075367 -115.016257 95 5177ft 238kts
28-Jul-18 14:15 36.071127 -114.929400 101 7023ft 276kts
28-Jul-18 14:16 36.057196 -114.834592 102 8641ft 282kts
28-Jul-18 14:17 36.045931 -114.751845 101 10246ft 306kts
28-Jul-18 14:18 36.030600 -114.641902 101 11958ft 338kts
28-Jul-18 14:19 36.011310 -114.505973 101 14454ft 352kts
28-Jul-18 14:20 35.993918 -114.384909 101 16470ft 364kts
28-Jul-18 14:21 35.979120 -114.282784 102 18026ft 374kts
28-Jul-18 14:22 35.960494 -114.154917 102 19823ft 385kts
28-Jul-18 14:23 35.941289 -114.024833 102 21301ft 401kts
28-Jul-18 14:24 35.919871 -113.889643 110 23063ft 404kts
28-Jul-18 14:25 35.882615 -113.759881 112 24533ft 413kts
28-Jul-18 14:26 35.843183 -113.625203 112 25935ft 423kts
28-Jul-18 14:27 35.802668 -113.487424 112 27221ft 432kts
28-Jul-18 14:28 35.761280 -113.347261 113 28421ft 441kts
28-Jul-18 14:29 35.719132 -113.205117 112 29205ft 454kts
28-Jul-18 14:30 35.674689 -113.055973 112 29339ft 478kts
28-Jul-18 14:31 35.627659 -112.899172 112 29370ft 495kts
28-Jul-18 14:32 35.579900 -112.740616 111 29371ft 497kts
28-Jul-18 14:33 35.531784 -112.581693 111 29370ft 496kts
28-Jul-18 14:34 35.450430 -112.457880 158 29408ft 479kts
28-Jul-18 14:35 35.323798 -112.420022 174 29369ft 469kts
28-Jul-18 14:36 35.195171 -112.394539 174 29370ft 469kts
28-Jul-18 14:37 35.066931 -112.366755 173 29356ft 469kts
28-Jul-18 14:38 34.939042 -112.339001 172 29286ft 476kts
28-Jul-18 14:39 34.817074 -112.312336 171 28251ft 443kts
28-Jul-18 14:40 34.698726 -112.286162 171 26463ft 434kts
28-Jul-18 14:41 34.582343 -112.260528 170 24052ft 423kts
28-Jul-18 14:42 34.469435 -112.235823 170 21717ft 404kts
28-Jul-18 14:43 34.361018 -112.208973 168 19484ft 395kts
28-Jul-18 14:44 34.255470 -112.181493 167 17394ft 383kts
28-Jul-18 14:45 34.152342 -112.154765 167 15118ft 378kts
28-Jul-18 14:46 34.051615 -112.125514 160 12983ft 369kts
28-Jul-18 14:47 33.957443 -112.086466 160 11324ft 342kts
28-Jul-18 14:48 33.877689 -112.053607 160 10135ft 290kts
28-Jul-18 14:49 33.801502 -112.022434 161 9395ft 287kts
28-Jul-18 14:50 33.725196 -111.991348 161 8879ft 288kts
28-Jul-18 14:51 33.650687 -111.961134 161 8191ft 286kts
28-Jul-18 14:52 33.576048 -111.930884 161 7508ft 284kts
28-Jul-18 14:53 33.530498 -111.866977 90 7116ft 272kts
28-Jul-18 14:54 33.530267 -111.776883 88 6825ft 272kts
28-Jul-18 14:55 33.530314 -111.687186 94 5886ft 269kts
28-Jul-18 14:56 33.473234 -111.654506 205 5080ft 249kts
28-Jul-18 14:57 33.435838 -111.716128 246 5060ft 229kts
28-Jul-18 14:58 33.425092 -111.786795 276 4403ft 218kts
28-Jul-18 14:59 33.429985 -111.856255 266 3561ft 205kts
28-Jul-18 15:00 33.428811 -111.917456 268 2657ft 157kts
28-Jul-18 15:01 33.429001 -111.967906 267 1682ft 154kts
28-Jul-18 15:02 33.428853 -112.016091 270 1142ft 73kts
28-Jul-18 15:03 33.429676 -112.021401 35 1142ft 3kts
28-Jul-18 15:04 33.429943 -112.020842 81 1142ft 1kts
28-Jul-18 15:05 33.429970 -112.019416 90 1142ft 9kts
28-Jul-18 15:06 33.430036 -112.016593 73 1142ft 7kts
28-Jul-18 15:07 33.431900 -112.015662 23 1142ft 6kts
28-Jul-18 15:08 33.432895 -112.014064 88 1142ft 8kts
28-Jul-18 15:09 33.432885 -112.010411 90 1142ft 13kts
28-Jul-18 15:10 33.432888 -112.005326 92 1142ft 18kts
28-Jul-18 15:11 33.432840 -112.000131 89 1142ft 8kts
28-Jul-18 15:12 33.433170 -111.999436 1 1142ft 0kts
28-Jul-18 15:13 33.433407 -111.999431 0 1142ft 0kts
28-Jul-18 15:14 33.433411 -111.999431 0 1142ft 0kts
28-Jul-18 15:15 33.433411 -111.999431 0 1142ft 0kts
28-Jul-18 15:16 33.433411 -111.999431 0 1142ft 0kts
28-Jul-18 15:17 33.433411 -111.999431 0 1142ft 0kts

Navigation Log

Ident Type
Flight plan parsing failed, navigation log unavailable